createdAt,value
2023-04-15T12:13:50.796Z,96669.13
2023-04-15T12:16:21.068Z,96672.19
2023-04-15T12:18:56.357Z,96673.38
2023-04-15T12:21:24.867Z,96668.53
2023-04-15T12:24:04.288Z,96675.66
2023-04-15T12:26:43.672Z,96669.94
2023-04-15T12:29:12.251Z,96678.03
2023-04-15T12:31:49.028Z,96678.78
2023-04-15T12:34:16.076Z,96682.59
2023-04-15T12:36:43.738Z,96690.47
2023-04-15T12:39:10.783Z,96680.53
2023-04-15T12:41:37.609Z,96688.41
2023-04-15T12:44:04.588Z,96699.88
2023-04-15T12:46:31.734Z,96696.84
2023-04-15T12:48:58.807Z,96701.16
2023-04-15T12:51:26.634Z,96712.19
2023-04-15T12:53:53.464Z,96714.50
2023-04-15T12:56:20.369Z,96711.72
2023-04-15T12:58:47.180Z,96710.66
2023-04-15T13:01:14.091Z,96715.19
2023-04-15T13:03:41.394Z,96713.34
2023-04-15T13:06:08.424Z,96711.53
2023-04-15T13:08:36.956Z,96717.59
2023-04-15T13:11:07.467Z,96721.81
2023-04-15T13:13:34.571Z,96715.66
2023-04-15T13:16:01.802Z,96714.16
2023-04-15T13:18:28.736Z,96711.78
2023-04-15T13:20:56.780Z,96713.75
2023-04-15T13:23:23.609Z,96722.84
2023-04-15T13:25:50.570Z,96728.56
2023-04-15T13:28:17.433Z,96730.75
2023-04-15T13:30:44.480Z,96732.16
2023-04-15T13:33:11.940Z,96741.44
2023-04-15T13:35:39.922Z,96735.94
2023-04-15T13:38:06.750Z,96735.09
2023-04-15T13:40:33.604Z,96743.22
2023-04-15T13:43:00.565Z,96739.53
2023-04-15T13:45:27.764Z,96746.34
2023-04-15T13:47:56.494Z,96753.19
2023-04-15T13:50:23.811Z,96746.25
2023-04-15T13:52:50.799Z,96749.72
2023-04-15T13:55:20.345Z,96748.13
2023-04-15T13:57:47.734Z,96751.88
2023-04-15T14:00:14.938Z,96760.53
2023-04-15T14:02:42.732Z,96763.34
2023-04-15T14:05:10.641Z,96762.28
2023-04-15T14:07:37.566Z,96759.47
2023-04-15T14:10:05.172Z,96770.69
2023-04-15T14:12:32.118Z,96768.09
2023-04-15T14:14:59.027Z,96775.88
2023-04-15T14:17:26.058Z,96776.06
2023-04-15T14:19:54.367Z,96779.28
2023-04-15T14:22:21.553Z,96778.66
2023-04-15T14:24:49.891Z,96779.94
2023-04-15T14:27:16.979Z,96783.59
2023-04-15T14:29:43.950Z,96786.19
2023-04-15T14:32:12.934Z,96786.19
2023-04-15T14:34:40.633Z,96792.78
2023-04-15T14:37:07.812Z,96791.69
2023-04-15T14:39:34.942Z,96801.66
2023-04-15T14:42:02.109Z,96799.41
2023-04-15T14:46:58.935Z,96800.13
2023-04-15T14:49:26.407Z,96802.84
2023-04-15T14:51:54.277Z,96799.19
2023-04-15T14:54:22.494Z,96812.38
2023-04-15T14:56:50.032Z,96811.28
2023-04-15T14:59:17.383Z,96814.34
2023-04-15T15:01:44.808Z,96817.28
2023-04-15T15:04:12.428Z,96821.63
2023-04-15T15:06:40.246Z,96822.97
2023-04-15T15:09:07.363Z,96816.16
2023-04-15T15:11:34.526Z,96833.34
2023-04-15T15:14:01.595Z,96829.34
2023-04-15T15:16:29.694Z,96826.53
2023-04-15T15:18:56.845Z,96842.19
2023-04-15T15:21:24.371Z,96841.06
2023-04-15T15:23:51.764Z,96838.56
2023-04-15T15:26:19.695Z,96844.50
2023-04-15T15:28:47.417Z,96840.72
2023-04-15T15:31:15.014Z,96855.75
2023-04-15T15:33:43.224Z,96855.97
2023-04-15T15:36:11.295Z,96860.53
2023-04-15T15:38:41.012Z,96854.66
2023-04-15T15:41:10.467Z,96858.25
2023-04-15T15:43:37.715Z,96864.84
2023-04-15T15:46:04.992Z,96866.81
2023-04-15T15:48:33.109Z,96873.94
2023-04-15T15:51:00.563Z,96876.97
2023-04-15T15:53:28.241Z,96873.84
2023-04-15T15:55:55.498Z,96875.91
2023-04-15T15:58:22.432Z,96878.19
2023-04-15T16:00:49.776Z,96878.94
2023-04-15T16:03:17.020Z,96883.50
2023-04-15T16:05:44.482Z,96891.16
2023-04-15T16:08:12.636Z,96887.59
2023-04-15T16:10:39.606Z,96894.50
2023-04-15T16:13:07.082Z,96890.47
2023-04-15T16:15:35.012Z,96900.66
2023-04-15T16:18:02.406Z,96897.63
2023-04-15T16:20:32.237Z,96900.97
2023-04-15T16:22:59.338Z,96899.97
2023-04-15T16:25:26.582Z,96905.41
2023-04-15T16:27:59.432Z,96901.91
2023-04-15T16:30:30.940Z,96909.03
2023-04-15T16:32:58.062Z,96912.16
2023-04-15T16:35:25.198Z,96911.16
2023-04-15T16:37:52.606Z,96914.75
2023-04-15T16:40:20.109Z,96916.78
2023-04-15T16:42:47.075Z,96920.16
2023-04-15T16:45:14.416Z,96926.03
2023-04-15T16:47:43.397Z,96919.97
2023-04-15T16:50:12.037Z,96927.97
2023-04-15T16:52:40.095Z,96933.81
2023-04-15T16:55:07.269Z,96930.44
2023-04-15T16:58:00.946Z,96930.25
2023-04-15T17:00:21.694Z,96939.13
2023-04-15T17:02:48.959Z,96941.41
2023-04-15T17:05:16.711Z,96947.53
2023-04-15T17:07:45.286Z,96950.34
2023-04-15T17:10:14.068Z,96961.06
2023-04-15T17:12:41.991Z,96955.22
2023-04-15T17:15:09.561Z,96959.09
2023-04-15T17:17:38.555Z,96958.84
2023-04-15T17:20:06.312Z,96970.38
2023-04-15T17:22:34.410Z,96973.19
2023-04-15T17:25:03.485Z,96981.63
2023-04-15T17:27:34.605Z,96976.31
2023-04-15T17:30:10.108Z,96979.66
2023-04-15T17:32:58.089Z,96983.72
2023-04-15T17:35:45.166Z,96983.72
2023-04-15T17:38:34.891Z,96982.75
2023-04-15T17:41:22.160Z,96986.63
2023-04-15T17:44:09.165Z,96988.69
2023-04-15T17:46:56.108Z,96990.72
2023-04-15T17:49:44.750Z,96989.44
2023-04-15T17:52:31.849Z,96994.06
2023-04-15T17:55:18.950Z,96999.47
2023-04-15T17:58:06.553Z,97004.81
2023-04-15T18:00:53.431Z,97009.78
2023-04-15T18:03:40.860Z,97007.78
2023-04-15T18:06:28.132Z,97011.63
2023-04-15T18:09:16.194Z,97008.59
2023-04-15T18:12:07.762Z,97014.97
2023-04-15T18:14:54.737Z,97014.22
2023-04-15T18:17:41.709Z,97021.63
2023-04-15T18:20:17.048Z,97024.22
2023-04-15T18:22:45.553Z,97022.16
2023-04-15T18:25:12.888Z,97038.00
2023-04-15T18:27:40.311Z,97034.44
2023-04-15T18:30:11.735Z,97042.13
2023-04-15T18:32:40.410Z,97033.19
2023-04-15T18:35:08.108Z,97038.59
2023-04-15T18:37:35.152Z,97048.28
2023-04-15T18:40:02.467Z,97041.16
2023-04-15T18:42:29.507Z,97061.81
2023-04-15T18:44:56.580Z,97055.94
2023-04-15T18:47:27.281Z,97061.81
2023-04-15T18:49:54.378Z,97062.56
2023-04-15T18:52:21.808Z,97077.84
2023-04-15T18:54:49.403Z,97073.97
2023-04-15T18:57:23.683Z,97086.66
2023-04-15T18:59:58.135Z,97084.13
2023-04-15T19:02:28.533Z,97085.19
2023-04-15T19:04:56.234Z,97082.38
2023-04-15T19:07:23.509Z,97099.22
2023-04-15T19:09:50.912Z,97100.75
2023-04-15T19:12:17.925Z,97099.22
2023-04-15T19:14:45.335Z,97107.94
2023-04-15T19:17:12.591Z,97105.66
2023-04-15T19:19:39.649Z,97119.47
2023-04-15T19:22:06.992Z,97119.47
2023-04-15T19:24:34.076Z,97119.47
2023-04-15T19:27:03.373Z,97122.50
2023-04-15T19:29:30.933Z,97124.78
2023-04-15T19:31:57.995Z,97130.41
2023-04-15T19:34:25.707Z,97136.47
2023-04-15T19:36:54.727Z,97135.25
2023-04-15T19:39:23.075Z,97139.09
2023-04-15T19:41:50.129Z,97146.00
2023-04-15T19:44:17.233Z,97150.09
2023-04-15T19:46:45.209Z,97150.09
2023-04-15T19:49:12.672Z,97143.69
2023-04-15T19:51:39.808Z,97141.16
2023-04-15T19:54:07.245Z,97143.69
2023-04-15T19:56:34.492Z,97148.06
2023-04-15T19:59:02.460Z,97143.75
2023-04-15T20:01:29.739Z,97147.09
2023-04-15T20:03:56.911Z,97153.00
2023-04-15T20:06:27.104Z,97152.75
2023-04-15T20:08:54.688Z,97149.44
2023-04-15T20:11:22.380Z,97156.06
2023-04-15T20:13:49.486Z,97149.69
2023-04-15T20:16:16.476Z,97153.03
2023-04-15T20:18:43.862Z,97162.97
2023-04-15T20:21:11.637Z,97158.34
2023-04-15T20:23:41.043Z,97161.41
2023-04-15T20:26:08.397Z,97157.84
2023-04-15T20:28:35.535Z,97157.84
2023-04-15T20:31:02.593Z,97163.97
2023-04-15T20:33:29.637Z,97163.97
2023-04-15T20:35:57.920Z,97165.50
2023-04-15T20:38:24.866Z,97161.41
2023-04-15T20:40:51.779Z,97168.28
2023-04-15T20:43:18.782Z,97175.44
2023-04-15T20:45:45.755Z,97174.13
2023-04-15T20:48:12.709Z,97175.66
2023-04-15T20:50:39.562Z,97182.03
2023-04-15T20:53:06.471Z,97185.09
2023-04-15T20:55:34.773Z,97182.00
2023-04-15T20:58:01.727Z,97185.56
2023-04-15T21:00:28.869Z,97184.53
2023-04-15T21:02:55.889Z,97188.59
2023-04-15T21:05:23.012Z,97190.91
2023-04-15T21:07:50.136Z,97194.22
2023-04-15T21:10:17.152Z,97194.75
2023-04-15T21:12:44.131Z,97192.69
2023-04-15T21:15:11.397Z,97197.78
2023-04-15T21:17:38.681Z,97197.78
2023-04-15T21:20:06.671Z,97197.78
2023-04-15T21:22:33.718Z,97206.22
2023-04-15T21:25:00.586Z,97201.59
2023-04-15T21:27:27.560Z,97208.22
2023-04-15T21:29:54.367Z,97215.34
2023-04-15T21:32:21.319Z,97216.13
2023-04-15T21:34:48.241Z,97219.44
2023-04-15T21:37:15.157Z,97226.59
2023-04-15T21:39:42.067Z,97227.09
2023-04-15T21:42:09.037Z,97219.19
2023-04-15T21:44:35.969Z,97227.84
2023-04-15T21:47:02.922Z,97230.66
2023-04-15T21:49:30.049Z,97240.34
2023-04-15T21:52:01.367Z,97231.94
2023-04-15T21:54:28.677Z,97227.59
2023-04-15T21:56:55.520Z,97224.56
2023-04-15T21:59:22.309Z,97238.59
2023-04-15T22:01:49.373Z,97236.56
2023-04-15T22:04:16.597Z,97236.03
2023-04-15T22:06:43.534Z,97244.69
2023-04-15T22:09:13.991Z,97247.50
2023-04-15T22:11:41.594Z,97237.81
2023-04-15T22:14:09.282Z,97239.31
2023-04-15T22:16:36.309Z,97244.19
2023-04-15T22:19:03.994Z,97250.53
2023-04-15T22:21:32.115Z,97248.50
2023-04-15T22:24:35.075Z,97249.25
2023-04-15T22:26:45.801Z,97246.44
2023-04-15T22:29:13.013Z,97255.13
2023-04-15T22:31:40.077Z,97257.94
2023-04-15T22:34:07.090Z,97268.63
2023-04-15T22:36:34.044Z,97280.63
2023-04-15T22:39:01.144Z,97272.19
2023-04-15T22:41:28.002Z,97274.22
2023-04-15T22:43:54.894Z,97279.09
2023-04-15T22:46:21.865Z,97279.09
2023-04-15T22:48:48.806Z,97278.56
2023-04-15T22:51:22.245Z,97283.41
2023-04-15T22:53:50.098Z,97284.72
2023-04-15T22:56:20.815Z,97287.28
2023-04-15T22:58:48.599Z,97294.41
2023-04-15T23:01:19.381Z,97286.75
2023-04-15T23:03:57.095Z,97294.66
2023-04-15T23:06:36.258Z,97296.19
2023-04-15T23:09:03.233Z,97301.56
2023-04-15T23:11:30.340Z,97294.41
2023-04-15T23:13:57.342Z,97307.19
2023-04-15T23:16:24.282Z,97300.03
2023-04-15T23:18:51.173Z,97305.88
2023-04-15T23:21:18.128Z,97307.91
2023-04-15T23:23:45.044Z,97307.91
2023-04-15T23:26:11.880Z,97309.44
2023-04-15T23:28:38.791Z,97312.50
2023-04-15T23:31:06.993Z,97316.59
2023-04-15T23:33:34.095Z,97309.72
2023-04-15T23:36:00.983Z,97314.84
2023-04-15T23:38:27.797Z,97313.88
2023-04-15T23:40:54.622Z,97319.78
2023-04-15T23:43:21.541Z,97326.13
2023-04-15T23:45:48.435Z,97316.22
2023-04-15T23:48:15.304Z,97325.91
2023-04-15T23:50:42.238Z,97324.63
2023-04-15T23:53:09.086Z,97320.03
2023-04-15T23:55:35.939Z,97320.56
2023-04-15T23:58:02.858Z,97317.00
